EDT,Max TemperatureF,Mean TemperatureF,Min TemperatureF,Max Dew PointF,MeanDew PointF,Min DewpointF,Max Humidity, Mean Humidity, Min Humidity, Max Sea Level PressureIn, Mean Sea Level PressureIn, Min Sea Level PressureIn, Max VisibilityMiles, Mean VisibilityMiles, Min VisibilityMiles, Max Wind SpeedMPH, Mean Wind SpeedMPH, Max Gust SpeedMPH,PrecipitationIn, CloudCover, Events, WindDirDegrees
2012-9-1,75,68,62,70,64,58,93,79,66,30.11,29.99,29.85,10,10,7,20,11,26,0.00,1,,28
2012-9-2,71,66,57,63,60,55,97,83,76,30.13,30.10,30.07,10,10,10,13,7,,0.00,4,,95
2012-9-3,72,63,55,62,57,54,100,82,55,30.22,30.18,30.12,10,9,2,16,8,,0.00,0,,78
2012-9-4,75,68,62,71,66,61,100,90,76,30.17,30.07,29.94,10,10,6,18,10,,0.00,6,,132
2012-9-5,75,70,66,72,71,64,100,96,89,29.92,29.83,29.78,10,5,1,20,14,26,0.59,7,Rain,201
2012-9-6,73,67,62,66,63,61,97,87,71,29.92,29.88,29.82,10,10,10,12,7,,0.00,2,,94
2012-9-7,77,70,64,72,69,64,100,94,83,29.95,29.93,29.89,10,8,1,10,7,,0.00,2,,194
2012-9-8,77,73,69,72,71,68,100,93,82,29.94,29.82,29.73,10,9,6,20,12,24,0.00,3,,166
2012-9-9,73,64,55,72,62,53,100,86,70,29.83,29.78,29.71,10,9,6,20,11,,0.14,6,Rain,348
2012-9-10,69,62,55,59,54,46,97,71,49,30.01,29.89,29.82,10,10,10,23,11,30,0.00,4,Rain,347
2012-9-11,68,62,55,52,48,44,80,64,42,30.29,30.18,30.02,10,10,10,16,12,24,0.00,0,,320
2012-9-12,71,63,55,59,55,50,89,74,59,30.39,30.35,30.29,10,10,10,12,7,,0.00,0,,234
2012-9-13,72,68,63,62,59,53,97,76,61,30.40,30.36,30.31,10,10,10,12,9,,0.00,0,,202
2012-9-14,73,64,55,65,63,56,100,90,78,30.30,30.23,30.12,10,10,2,12,6,,0.00,0,,180
2012-9-15,73,68,64,67,61,45,100,78,50,30.12,30.02,29.97,10,10,10,16,8,22,0.01,3,Rain,311
2012-9-16,71,62,53,54,50,46,80,62,44,30.09,30.04,30.01,10,10,10,15,8,23,0.00,1,,292
2012-9-17,71,59,48,58,52,46,93,73,47,30.11,30.08,30.05,10,10,10,8,4,,0.00,0,,220
2012-9-18,75,68,61,67,62,57,90,81,71,30.09,30.00,29.86,10,10,8,24,12,31,0.00,1,,164
2012-9-19,72,64,57,70,63,48,100,87,47,30.15,29.90,29.77,10,7,1,24,16,31,0.72,5,Rain,214
2012-9-20,66,60,53,56,51,48,93,74,54,30.21,30.17,30.14,10,10,10,18,11,26,0.00,0,,38
2012-9-21,64,57,51,63,58,50,100,92,75,30.14,30.05,29.97,10,7,2,20,11,25,0.01,6,Rain,24
2012-9-22,66,62,61,64,62,59,100,95,83,29.97,29.93,29.90,10,7,1,17,12,23,0.00,5,Rain,306
2012-9-23,72,63,55,66,59,46,100,84,45,30.08,29.94,29.85,10,9,5,14,10,,0.00,4,,244
2012-9-24,68,60,55,49,44,39,74,57,36,30.14,30.10,30.07,10,10,9,14,10,23,0.00,1,,312
2012-9-25,70,58,46,56,49,42,86,64,48,30.23,30.20,30.15,10,10,10,17,9,,0.00,1,,231
2012-9-26,72,67,62,65,62,57,93,83,73,30.20,30.13,30.06,10,10,9,16,11,,0.01,3,Rain,201
2012-9-27,71,62,51,65,58,48,100,83,68,30.23,30.13,30.03,10,9,6,20,11,23,0.00,3,,358
2012-9-28,69,60,53,65,55,47,100,83,70,30.23,30.10,29.93,10,10,7,18,11,26,0.20,6,Rain,105
2012-9-29,68,62,57,66,63,57,100,98,90,29.91,29.89,29.86,10,5,0,13,7,,0.63,8,Fog-Rain,224
2012-9-30,63,60,57,61,58,54,100,91,75,29.89,29.80,29.74,10,8,1,17,8,23,0.36,7,Rain,342